sensor_id;sensor_type;location;lat;lon;timestamp;pressure;altitude;pressure_sealevel;temperature;humidity
30021;BME280;16861;52.294;7.760;2023-05-22T00:01:40;99760.72;;;21.68;54.23
30021;BME280;16861;52.294;7.760;2023-05-22T00:04:10;99753.69;;;21.67;54.26
30021;BME280;16861;52.294;7.760;2023-05-22T00:06:41;99760.22;;;21.65;55.07
30021;BME280;16861;52.294;7.760;2023-05-22T00:09:08;99754.00;;;21.64;54.69
30021;BME280;16861;52.294;7.760;2023-05-22T00:11:35;99759.53;;;21.63;54.57
30021;BME280;16861;52.294;7.760;2023-05-22T00:14:02;99761.69;;;21.59;54.82
30021;BME280;16861;52.294;7.760;2023-05-22T00:16:28;99764.66;;;21.56;54.69
30021;BME280;16861;52.294;7.760;2023-05-22T00:18:55;99771.38;;;21.52;54.61
30021;BME280;16861;52.294;7.760;2023-05-22T00:21:23;99774.19;;;21.50;54.91
30021;BME280;16861;52.294;7.760;2023-05-22T00:23:50;99763.81;;;21.47;55.11
30021;BME280;16861;52.294;7.760;2023-05-22T00:26:16;99768.31;;;21.46;55.42
30021;BME280;16861;52.294;7.760;2023-05-22T00:28:43;99761.13;;;21.47;55.52
30021;BME280;16861;52.294;7.760;2023-05-22T00:31:10;99773.66;;;21.46;55.64
30021;BME280;16861;52.294;7.760;2023-05-22T00:33:36;99759.59;;;21.44;55.70
30021;BME280;16861;52.294;7.760;2023-05-22T00:36:04;99750.06;;;21.42;55.96
30021;BME280;16861;52.294;7.760;2023-05-22T00:38:33;99745.88;;;21.39;56.23
30021;BME280;16861;52.294;7.760;2023-05-22T00:41:01;99744.34;;;21.37;56.40
30021;BME280;16861;52.294;7.760;2023-05-22T00:43:28;99745.31;;;21.35;56.53
30021;BME280;16861;52.294;7.760;2023-05-22T00:45:54;99752.53;;;21.35;56.79
30021;BME280;16861;52.294;7.760;2023-05-22T00:48:22;99741.13;;;21.33;57.00
30021;BME280;16861;52.294;7.760;2023-05-22T00:50:49;99742.28;;;21.30;56.97
30021;BME280;16861;52.294;7.760;2023-05-22T00:53:21;99737.22;;;21.27;57.80
30021;BME280;16861;52.294;7.760;2023-05-22T00:55:50;99730.91;;;21.28;57.09
30021;BME280;16861;52.294;7.760;2023-05-22T00:58:18;99732.06;;;21.26;57.24
30021;BME280;16861;52.294;7.760;2023-05-22T01:00:44;99737.56;;;21.24;57.45
30021;BME280;16861;52.294;7.760;2023-05-22T01:03:14;99737.88;;;21.21;57.43
30021;BME280;16861;52.294;7.760;2023-05-22T01:05:42;99744.38;;;21.18;57.69
30021;BME280;16861;52.294;7.760;2023-05-22T01:08:08;99743.88;;;21.15;57.53
30021;BME280;16861;52.294;7.760;2023-05-22T01:10:36;99743.63;;;21.08;57.58
30021;BME280;16861;52.294;7.760;2023-05-22T01:13:45;99750.25;;;20.95;58.04
30021;BME280;16861;52.294;7.760;2023-05-22T01:16:31;99740.44;;;20.86;57.74
30021;BME280;16861;52.294;7.760;2023-05-22T01:19:23;99736.72;;;20.79;56.86
30021;BME280;16861;52.294;7.760;2023-05-22T01:32:19;99726.09;;;20.51;56.89
30021;BME280;16861;52.294;7.760;2023-05-22T01:34:52;99737.41;;;20.44;56.41
30021;BME280;16861;52.294;7.760;2023-05-22T01:37:20;99727.34;;;20.38;56.34
30021;BME280;16861;52.294;7.760;2023-05-22T01:39:50;99727.28;;;20.30;57.03
30021;BME280;16861;52.294;7.760;2023-05-22T01:42:17;99720.13;;;20.21;56.66
30021;BME280;16861;52.294;7.760;2023-05-22T01:44:44;99709.38;;;20.12;57.07
30021;BME280;16861;52.294;7.760;2023-05-22T01:47:11;99704.91;;;20.03;57.29
30021;BME280;16861;52.294;7.760;2023-05-22T01:49:37;99703.13;;;19.93;57.24
30021;BME280;16861;52.294;7.760;2023-05-22T01:52:31;99695.63;;;19.79;58.10
30021;BME280;16861;52.294;7.760;2023-05-22T01:55:23;99686.38;;;19.73;58.27
30021;BME280;16861;52.294;7.760;2023-05-22T01:57:59;99679.78;;;19.67;57.84
30021;BME280;16861;52.294;7.760;2023-05-22T02:00:28;99672.09;;;19.64;57.44
30021;BME280;16861;52.294;7.760;2023-05-22T02:03:02;99673.53;;;19.59;57.74
30021;BME280;16861;52.294;7.760;2023-05-22T02:05:33;99671.00;;;19.57;57.56
30021;BME280;16861;52.294;7.760;2023-05-22T02:08:02;99671.00;;;19.57;57.95
30021;BME280;16861;52.294;7.760;2023-05-22T02:10:30;99664.00;;;19.56;58.08
30021;BME280;16861;52.294;7.760;2023-05-22T02:15:24;99668.06;;;19.60;57.92
30021;BME280;16861;52.294;7.760;2023-05-22T02:17:51;99657.22;;;19.62;58.09
30021;BME280;16861;52.294;7.760;2023-05-22T02:20:18;99662.38;;;19.63;58.09
30021;BME280;16861;52.294;7.760;2023-05-22T02:22:46;99661.44;;;19.64;58.24
30021;BME280;16861;52.294;7.760;2023-05-22T02:25:13;99659.56;;;19.65;58.34
30021;BME280;16861;52.294;7.760;2023-05-22T02:27:44;99662.09;;;19.66;58.61
30021;BME280;16861;52.294;7.760;2023-05-22T02:30:12;99648.75;;;19.66;58.50
30021;BME280;16861;52.294;7.760;2023-05-22T02:32:40;99647.75;;;19.67;58.51
30021;BME280;16861;52.294;7.760;2023-05-22T02:35:07;99644.13;;;19.69;58.57
30021;BME280;16861;52.294;7.760;2023-05-22T02:37:34;99642.41;;;19.67;58.12
30021;BME280;16861;52.294;7.760;2023-05-22T02:40:01;99641.44;;;19.69;58.25
30021;BME280;16861;52.294;7.760;2023-05-22T02:42:27;99635.09;;;19.70;58.43
30021;BME280;16861;52.294;7.760;2023-05-22T02:44:54;99631.44;;;19.71;58.03
30021;BME280;16861;52.294;7.760;2023-05-22T02:47:21;99634.97;;;19.71;58.21
30021;BME280;16861;52.294;7.760;2023-05-22T02:49:48;99636.63;;;19.72;58.47
30021;BME280;16861;52.294;7.760;2023-05-22T02:52:14;99633.97;;;19.72;58.71
30021;BME280;16861;52.294;7.760;2023-05-22T02:54:41;99631.28;;;19.72;58.50
30021;BME280;16861;52.294;7.760;2023-05-22T02:57:08;99637.47;;;19.73;58.56
30021;BME280;16861;52.294;7.760;2023-05-22T02:59:34;99641.13;;;19.72;58.40
30021;BME280;16861;52.294;7.760;2023-05-22T03:02:02;99640.16;;;19.73;58.64
30021;BME280;16861;52.294;7.760;2023-05-22T03:04:29;99644.50;;;19.74;58.35
30021;BME280;16861;52.294;7.760;2023-05-22T03:06:55;99649.84;;;19.74;58.38
30021;BME280;16861;52.294;7.760;2023-05-22T03:09:22;99649.84;;;19.74;58.84
30021;BME280;16861;52.294;7.760;2023-05-22T03:11:48;99646.47;;;19.72;58.92
30021;BME280;16861;52.294;7.760;2023-05-22T03:14:15;99659.13;;;19.70;58.70
30021;BME280;16861;52.294;7.760;2023-05-22T03:16:42;99661.94;;;19.68;59.17
30021;BME280;16861;52.294;7.760;2023-05-22T03:19:13;99657.91;;;19.64;59.91
30021;BME280;16861;52.294;7.760;2023-05-22T03:21:40;99654.38;;;19.63;59.45
30021;BME280;16861;52.294;7.760;2023-05-22T03:24:09;99650.31;;;19.59;59.65
30021;BME280;16861;52.294;7.760;2023-05-22T03:26:37;99657.66;;;19.57;59.68
30021;BME280;16861;52.294;7.760;2023-05-22T03:29:04;99659.63;;;19.55;59.80
30021;BME280;16861;52.294;7.760;2023-05-22T03:31:31;99666.28;;;19.51;60.12
30021;BME280;16861;52.294;7.760;2023-05-22T03:33:59;99652.22;;;19.49;60.46
30021;BME280;16861;52.294;7.760;2023-05-22T03:36:26;99641.53;;;19.49;60.53
30021;BME280;16861;52.294;7.760;2023-05-22T03:38:52;99643.22;;;19.50;60.65
30021;BME280;16861;52.294;7.760;2023-05-22T03:41:19;99634.25;;;19.51;60.92
30021;BME280;16861;52.294;7.760;2023-05-22T03:43:46;99634.06;;;19.52;61.01
30021;BME280;16861;52.294;7.760;2023-05-22T03:46:12;99628.44;;;19.56;60.73
30021;BME280;16861;52.294;7.760;2023-05-22T03:48:39;99625.63;;;19.57;61.27
30021;BME280;16861;52.294;7.760;2023-05-22T03:51:07;99623.63;;;19.59;60.98
30021;BME280;16861;52.294;7.760;2023-05-22T03:53:33;99621.66;;;19.61;60.99
30021;BME280;16861;52.294;7.760;2023-05-22T03:56:00;99618.84;;;19.63;61.35
30021;BME280;16861;52.294;7.760;2023-05-22T03:58:27;99621.38;;;19.64;61.17
30021;BME280;16861;52.294;7.760;2023-05-22T04:00:54;99625.84;;;19.64;61.48
30021;BME280;16861;52.294;7.760;2023-05-22T04:03:23;99622.34;;;19.63;61.10
30021;BME280;16861;52.294;7.760;2023-05-22T04:05:50;99613.34;;;19.64;61.38
30021;BME280;16861;52.294;7.760;2023-05-22T04:08:17;99601.84;;;19.64;61.51
30021;BME280;16861;52.294;7.760;2023-05-22T04:10:43;99584.13;;;19.63;61.50
30021;BME280;16861;52.294;7.760;2023-05-22T04:13:12;99563.59;;;19.63;61.66
30021;BME280;16861;52.294;7.760;2023-05-22T04:15:39;99554.44;;;19.66;61.69
30021;BME280;16861;52.294;7.760;2023-05-22T04:18:12;99558.66;;;19.69;61.24
30021;BME280;16861;52.294;7.760;2023-05-22T04:20:39;99568.06;;;19.73;61.52
30021;BME280;16861;52.294;7.760;2023-05-22T04:23:06;99569.56;;;19.75;61.05
30021;BME280;16861;52.294;7.760;2023-05-22T04:25:33;99572.06;;;19.77;61.49
30021;BME280;16861;52.294;7.760;2023-05-22T04:27:59;99576.44;;;19.78;61.27
30021;BME280;16861;52.294;7.760;2023-05-22T04:30:30;99572.91;;;19.77;61.57
30021;BME280;16861;52.294;7.760;2023-05-22T04:32:59;99579.13;;;19.78;61.79
30021;BME280;16861;52.294;7.760;2023-05-22T04:35:26;99586.28;;;19.77;61.38
30021;BME280;16861;52.294;7.760;2023-05-22T04:37:56;99588.28;;;19.75;61.72
30021;BME280;16861;52.294;7.760;2023-05-22T04:40:22;99586.56;;;19.74;61.95
30021;BME280;16861;52.294;7.760;2023-05-22T04:42:51;99581.41;;;19.73;61.81
30021;BME280;16861;52.294;7.760;2023-05-22T04:45:19;99585.03;;;19.72;61.96
30021;BME280;16861;52.294;7.760;2023-05-22T04:47:51;99593.06;;;19.72;62.27
30021;BME280;16861;52.294;7.760;2023-05-22T04:50:18;99589.56;;;19.71;62.11
30021;BME280;16861;52.294;7.760;2023-05-22T04:52:46;99590.38;;;19.72;61.97
30021;BME280;16861;52.294;7.760;2023-05-22T04:55:13;99585.91;;;19.72;62.25
30021;BME280;16861;52.294;7.760;2023-05-22T04:57:40;99600.09;;;19.73;62.33
30021;BME280;16861;52.294;7.760;2023-05-22T05:00:10;99591.91;;;19.74;62.48
30021;BME280;16861;52.294;7.760;2023-05-22T05:02:38;99599.78;;;19.76;62.51
30021;BME280;16861;52.294;7.760;2023-05-22T05:05:04;99596.81;;;19.79;62.72
30021;BME280;16861;52.294;7.760;2023-05-22T05:07:31;99596.66;;;19.81;62.79
30021;BME280;16861;52.294;7.760;2023-05-22T05:09:58;99599.19;;;19.82;62.71
30021;BME280;16861;52.294;7.760;2023-05-22T05:12:24;99593.69;;;19.84;62.32
30021;BME280;16861;52.294;7.760;2023-05-22T05:14:51;99591.84;;;19.84;62.74
30021;BME280;16861;52.294;7.760;2023-05-22T05:17:17;99590.84;;;19.85;62.85
30021;BME280;16861;52.294;7.760;2023-05-22T05:19:44;99595.22;;;19.86;63.07
30021;BME280;16861;52.294;7.760;2023-05-22T05:22:10;99592.56;;;19.86;63.07
30021;BME280;16861;52.294;7.760;2023-05-22T05:24:37;99586.22;;;19.87;62.95
30021;BME280;16861;52.294;7.760;2023-05-22T05:27:03;99592.38;;;19.88;62.96
30021;BME280;16861;52.294;7.760;2023-05-22T05:29:30;99601.22;;;19.88;62.98
30021;BME280;16861;52.294;7.760;2023-05-22T05:31:57;99595.88;;;19.88;63.00
30021;BME280;16861;52.294;7.760;2023-05-22T05:34:23;99592.38;;;19.88;63.23
30021;BME280;16861;52.294;7.760;2023-05-22T05:36:50;99595.88;;;19.88;63.27
30021;BME280;16861;52.294;7.760;2023-05-22T05:39:17;99594.06;;;19.89;63.22
30021;BME280;16861;52.294;7.760;2023-05-22T05:41:44;99603.75;;;19.90;63.50
30021;BME280;16861;52.294;7.760;2023-05-22T05:44:10;99594.75;;;19.91;63.42
30021;BME280;16861;52.294;7.760;2023-05-22T05:46:37;99596.28;;;19.93;63.63
30021;BME280;16861;52.294;7.760;2023-05-22T05:49:07;99604.13;;;19.95;64.59
30021;BME280;16861;52.294;7.760;2023-05-22T05:51:37;99604.69;;;19.99;63.73
30021;BME280;16861;52.294;7.760;2023-05-22T05:54:04;99609.75;;;20.02;63.96
30021;BME280;16861;52.294;7.760;2023-05-22T05:56:30;99606.63;;;20.07;63.95
30021;BME280;16861;52.294;7.760;2023-05-22T05:58:57;99608.81;;;20.11;64.25
30021;BME280;16861;52.294;7.760;2023-05-22T06:01:25;99612.72;;;20.17;64.37
30021;BME280;16861;52.294;7.760;2023-05-22T06:03:52;99612.94;;;20.24;64.34
30021;BME280;16861;52.294;7.760;2023-05-22T06:06:19;99603.63;;;20.28;64.30
30021;BME280;16861;52.294;7.760;2023-05-22T06:08:46;99607.66;;;20.32;64.26
30021;BME280;16861;52.294;7.760;2023-05-22T06:11:13;99613.38;;;20.37;64.02
30021;BME280;16861;52.294;7.760;2023-05-22T06:13:40;99612.91;;;20.42;64.07
30021;BME280;16861;52.294;7.760;2023-05-22T06:16:06;99612.44;;;20.47;64.16
30021;BME280;16861;52.294;7.760;2023-05-22T06:18:33;99612.84;;;20.52;64.39
30021;BME280;16861;52.294;7.760;2023-05-22T06:20:59;99607.84;;;20.57;64.38
30021;BME280;16861;52.294;7.760;2023-05-22T06:23:26;99612.56;;;20.63;64.35
30021;BME280;16861;52.294;7.760;2023-05-22T06:25:52;99611.25;;;20.67;63.96
30021;BME280;16861;52.294;7.760;2023-05-22T06:28:19;99613.31;;;20.74;64.08
30021;BME280;16861;52.294;7.760;2023-05-22T06:30:46;99613.66;;;20.79;64.21
30021;BME280;16861;52.294;7.760;2023-05-22T06:33:13;99620.03;;;20.86;64.28
30021;BME280;16861;52.294;7.760;2023-05-22T06:35:40;99613.09;;;20.93;64.26
30021;BME280;16861;52.294;7.760;2023-05-22T06:38:07;99614.81;;;21.03;63.99
30021;BME280;16861;52.294;7.760;2023-05-22T06:40:33;99614.03;;;21.11;63.31
30021;BME280;16861;52.294;7.760;2023-05-22T06:43:00;99628.28;;;21.19;63.95
30021;BME280;16861;52.294;7.760;2023-05-22T06:45:27;99626.50;;;21.28;63.81
30021;BME280;16861;52.294;7.760;2023-05-22T06:47:53;99627.66;;;21.34;63.52
30021;BME280;16861;52.294;7.760;2023-05-22T06:50:20;99627.91;;;21.41;63.68
30021;BME280;16861;52.294;7.760;2023-05-22T06:52:47;99627.22;;;21.47;63.22
30021;BME280;16861;52.294;7.760;2023-05-22T06:55:14;99622.06;;;21.54;63.31
30021;BME280;16861;52.294;7.760;2023-05-22T06:57:41;99631.28;;;21.59;63.60
30021;BME280;16861;52.294;7.760;2023-05-22T07:00:08;99634.16;;;21.66;63.73
30021;BME280;16861;52.294;7.760;2023-05-22T07:02:37;99630.53;;;21.76;63.59
30021;BME280;16861;52.294;7.760;2023-05-22T07:05:04;99634.06;;;21.84;63.09
30021;BME280;16861;52.294;7.760;2023-05-22T07:07:30;99639.63;;;21.91;63.08
30021;BME280;16861;52.294;7.760;2023-05-22T07:09:57;99634.25;;;21.99;63.23
30021;BME280;16861;52.294;7.760;2023-05-22T07:12:24;99639.59;;;22.08;62.88
30021;BME280;16861;52.294;7.760;2023-05-22T07:14:53;99637.78;;;22.17;62.70
30021;BME280;16861;52.294;7.760;2023-05-22T07:17:20;99635.28;;;22.23;62.36
30021;BME280;16861;52.294;7.760;2023-05-22T07:19:47;99634.59;;;22.30;62.26
30021;BME280;16861;52.294;7.760;2023-05-22T07:22:14;99637.44;;;22.36;62.35
30021;BME280;16861;52.294;7.760;2023-05-22T07:24:40;99638.47;;;22.44;62.53
30021;BME280;16861;52.294;7.760;2023-05-22T07:27:07;99637.59;;;22.51;61.97
30021;BME280;16861;52.294;7.760;2023-05-22T07:29:34;99642.19;;;22.59;61.90
30021;BME280;16861;52.294;7.760;2023-05-22T07:32:01;99648.34;;;22.68;61.73
30021;BME280;16861;52.294;7.760;2023-05-22T07:34:27;99642.34;;;22.74;61.31
30021;BME280;16861;52.294;7.760;2023-05-22T07:37:06;99648.84;;;22.80;61.47
30021;BME280;16861;52.294;7.760;2023-05-22T07:39:33;99647.84;;;22.89;61.29
30021;BME280;16861;52.294;7.760;2023-05-22T07:42:00;99641.59;;;22.97;60.66
30021;BME280;16861;52.294;7.760;2023-05-22T07:44:28;99647.28;;;23.02;60.89
30021;BME280;16861;52.294;7.760;2023-05-22T07:46:54;99652.81;;;23.09;60.35
30021;BME280;16861;52.294;7.760;2023-05-22T07:49:22;99654.81;;;23.15;60.14
30021;BME280;16861;52.294;7.760;2023-05-22T07:51:49;99655.31;;;23.19;59.63
30021;BME280;16861;52.294;7.760;2023-05-22T07:54:16;99652.94;;;23.24;59.77
30021;BME280;16861;52.294;7.760;2023-05-22T07:56:44;99662.78;;;23.32;59.92
30021;BME280;16861;52.294;7.760;2023-05-22T07:59:11;99655.28;;;23.36;59.57
30021;BME280;16861;52.294;7.760;2023-05-22T08:01:38;99659.09;;;23.41;59.75
30021;BME280;16861;52.294;7.760;2023-05-22T08:04:05;99658.41;;;23.48;59.85
30021;BME280;16861;52.294;7.760;2023-05-22T08:06:32;99667.63;;;23.53;59.70
30021;BME280;16861;52.294;7.760;2023-05-22T08:09:02;99674.81;;;23.61;59.42
30021;BME280;16861;52.294;7.760;2023-05-22T08:11:30;99665.03;;;23.68;59.78
30021;BME280;16861;52.294;7.760;2023-05-22T08:13:56;99666.00;;;23.76;59.81
30021;BME280;16861;52.294;7.760;2023-05-22T08:16:23;99668.63;;;23.84;59.92
30021;BME280;16861;52.294;7.760;2023-05-22T08:18:49;99673.78;;;23.94;60.28
30021;BME280;16861;52.294;7.760;2023-05-22T08:21:17;99672.72;;;24.03;59.33
30021;BME280;16861;52.294;7.760;2023-05-22T08:23:43;99672.34;;;24.15;59.98
30021;BME280;16861;52.294;7.760;2023-05-22T08:26:10;99672.13;;;24.25;59.01
30021;BME280;16861;52.294;7.760;2023-05-22T08:28:36;99678.25;;;24.33;58.83
30021;BME280;16861;52.294;7.760;2023-05-22T08:31:07;99675.50;;;24.42;58.52
30021;BME280;16861;52.294;7.760;2023-05-22T08:33:34;99674.59;;;24.50;58.74
30021;BME280;16861;52.294;7.760;2023-05-22T08:36:00;99671.19;;;24.56;58.65
30021;BME280;16861;52.294;7.760;2023-05-22T08:38:27;99666.72;;;24.63;58.75
30021;BME280;16861;52.294;7.760;2023-05-22T08:40:54;99671.41;;;24.69;58.60
30021;BME280;16861;52.294;7.760;2023-05-22T08:43:21;99677.06;;;24.75;58.34
30021;BME280;16861;52.294;7.760;2023-05-22T08:45:55;99676.53;;;24.79;57.84
30021;BME280;16861;52.294;7.760;2023-05-22T08:48:23;99667.56;;;24.87;57.88
30021;BME280;16861;52.294;7.760;2023-05-22T08:50:53;99664.50;;;24.90;57.54
30021;BME280;16861;52.294;7.760;2023-05-22T08:53:23;99665.59;;;24.96;57.68
30021;BME280;16861;52.294;7.760;2023-05-22T08:55:52;99663.59;;;24.98;57.42
30021;BME280;16861;52.294;7.760;2023-05-22T08:58:19;99670.28;;;25.02;57.64
30021;BME280;16861;52.294;7.760;2023-05-22T09:00:46;99662.84;;;25.04;57.30
30021;BME280;16861;52.294;7.760;2023-05-22T09:03:14;99655.41;;;25.06;57.30
30021;BME280;16861;52.294;7.760;2023-05-22T09:05:41;99658.38;;;25.11;57.44
30021;BME280;16861;52.294;7.760;2023-05-22T09:08:07;99656.81;;;25.17;57.31
30021;BME280;16861;52.294;7.760;2023-05-22T09:10:46;99658.75;;;25.23;57.69
30021;BME280;16861;52.294;7.760;2023-05-22T09:13:23;99663.78;;;25.27;57.59
30021;BME280;16861;52.294;7.760;2023-05-22T09:15:50;99661.78;;;25.35;56.87
30021;BME280;16861;52.294;7.760;2023-05-22T09:18:17;99654.00;;;25.41;56.87
30021;BME280;16861;52.294;7.760;2023-05-22T09:20:44;99657.59;;;25.48;57.02
30021;BME280;16861;52.294;7.760;2023-05-22T09:23:11;99657.88;;;25.53;57.34
30021;BME280;16861;52.294;7.760;2023-05-22T09:25:40;99661.53;;;25.60;57.49
30021;BME280;16861;52.294;7.760;2023-05-22T09:28:09;99655.41;;;25.67;57.50
30021;BME280;16861;52.294;7.760;2023-05-22T09:30:36;99660.47;;;25.76;56.85
30021;BME280;16861;52.294;7.760;2023-05-22T09:33:03;99663.22;;;25.83;56.90
30021;BME280;16861;52.294;7.760;2023-05-22T09:35:34;99659.97;;;25.88;56.46
30021;BME280;16861;52.294;7.760;2023-05-22T09:38:00;99663.97;;;25.92;56.16
30021;BME280;16861;52.294;7.760;2023-05-22T09:40:27;99658.19;;;25.95;56.06
30021;BME280;16861;52.294;7.760;2023-05-22T09:42:54;99658.63;;;25.99;56.40
30021;BME280;16861;52.294;7.760;2023-05-22T09:45:21;99659.91;;;26.03;56.14
30021;BME280;16861;52.294;7.760;2023-05-22T09:47:49;99663.91;;;26.07;55.88
30021;BME280;16861;52.294;7.760;2023-05-22T09:50:16;99659.81;;;26.11;56.40
30021;BME280;16861;52.294;7.760;2023-05-22T09:52:44;99667.09;;;26.18;56.33
30021;BME280;16861;52.294;7.760;2023-05-22T09:55:12;99663.66;;;26.24;56.74
30021;BME280;16861;52.294;7.760;2023-05-22T09:57:43;99667.06;;;26.33;55.94
30021;BME280;16861;52.294;7.760;2023-05-22T10:00:12;99679.03;;;26.45;56.41
30021;BME280;16861;52.294;7.760;2023-05-22T10:02:43;99673.91;;;26.57;55.88
30021;BME280;16861;52.294;7.760;2023-05-22T10:05:13;99667.63;;;26.72;56.57
30021;BME280;16861;52.294;7.760;2023-05-22T10:07:49;99664.81;;;26.87;55.67
30021;BME280;16861;52.294;7.760;2023-05-22T10:10:19;99674.03;;;26.99;55.32
30021;BME280;16861;52.294;7.760;2023-05-22T10:12:56;99673.50;;;27.11;55.60
30021;BME280;16861;52.294;7.760;2023-05-22T10:15:26;99667.59;;;27.29;56.28
30021;BME280;16861;52.294;7.760;2023-05-22T10:17:53;99672.22;;;27.49;55.72
30021;BME280;16861;52.294;7.760;2023-05-22T10:20:28;99664.84;;;27.64;55.44
30021;BME280;16861;52.294;7.760;2023-05-22T10:22:55;99667.41;;;27.86;55.12
30021;BME280;16861;52.294;7.760;2023-05-22T10:25:22;99658.06;;;28.02;54.87
30021;BME280;16861;52.294;7.760;2023-05-22T10:27:51;99660.19;;;28.20;54.15
30021;BME280;16861;52.294;7.760;2023-05-22T10:36:02;99647.31;;;28.43;51.67
30021;BME280;16861;52.294;7.760;2023-05-22T10:39:06;99647.53;;;28.48;52.12
30021;BME280;16861;52.294;7.760;2023-05-22T10:41:39;99639.41;;;28.61;52.12
30021;BME280;16861;52.294;7.760;2023-05-22T10:44:05;99636.88;;;28.73;52.60
30021;BME280;16861;52.294;7.760;2023-05-22T10:46:32;99639.78;;;28.92;52.49
30021;BME280;16861;52.294;7.760;2023-05-22T10:49:02;99627.00;;;29.20;52.99
30021;BME280;16861;52.294;7.760;2023-05-22T10:51:31;99629.16;;;29.57;51.81
30021;BME280;16861;52.294;7.760;2023-05-22T10:53:58;99628.69;;;29.99;51.87
30021;BME280;16861;52.294;7.760;2023-05-22T10:56:34;99634.63;;;30.47;49.42
30021;BME280;16861;52.294;7.760;2023-05-22T10:59:02;99636.09;;;30.93;48.67
30021;BME280;16861;52.294;7.760;2023-05-22T11:01:33;99638.59;;;31.32;46.83
30021;BME280;16861;52.294;7.760;2023-05-22T11:09:27;99629.03;;;31.61;46.40
30021;BME280;16861;52.294;7.760;2023-05-22T11:12:23;99621.16;;;31.71;46.88
30021;BME280;16861;52.294;7.760;2023-05-22T11:14:56;99625.88;;;31.94;45.31
30021;BME280;16861;52.294;7.760;2023-05-22T11:17:31;99622.94;;;32.20;45.01
30021;BME280;16861;52.294;7.760;2023-05-22T11:20:05;99624.78;;;32.50;43.97
30021;BME280;16861;52.294;7.760;2023-05-22T11:22:37;99624.41;;;32.82;44.20
30021;BME280;16861;52.294;7.760;2023-05-22T11:25:15;99625.09;;;33.13;43.76
30021;BME280;16861;52.294;7.760;2023-05-22T11:27:46;99621.06;;;33.45;44.71
30021;BME280;16861;52.294;7.760;2023-05-22T11:30:14;99623.81;;;33.74;44.24
30021;BME280;16861;52.294;7.760;2023-05-22T11:32:43;99616.06;;;34.00;43.06
30021;BME280;16861;52.294;7.760;2023-05-22T11:35:14;99620.34;;;34.25;42.36
30021;BME280;16861;52.294;7.760;2023-05-22T11:37:42;99615.03;;;34.53;41.90
30021;BME280;16861;52.294;7.760;2023-05-22T11:40:11;99605.22;;;34.74;41.84
30021;BME280;16861;52.294;7.760;2023-05-22T11:42:38;99606.88;;;34.98;41.56
30021;BME280;16861;52.294;7.760;2023-05-22T11:45:05;99613.19;;;35.20;41.19
30021;BME280;16861;52.294;7.760;2023-05-22T11:47:32;99603.59;;;35.40;40.29
30021;BME280;16861;52.294;7.760;2023-05-22T11:49:59;99607.59;;;35.60;39.16
30021;BME280;16861;52.294;7.760;2023-05-22T11:52:34;99602.56;;;35.74;39.11
30021;BME280;16861;52.294;7.760;2023-05-22T11:55:02;99605.75;;;35.93;39.03
30021;BME280;16861;52.294;7.760;2023-05-22T11:57:31;99603.66;;;36.06;38.94
30021;BME280;16861;52.294;7.760;2023-05-22T11:59:57;99592.28;;;36.19;38.28
30021;BME280;16861;52.294;7.760;2023-05-22T12:02:24;99590.19;;;36.32;37.55
30021;BME280;16861;52.294;7.760;2023-05-22T12:04:54;99599.59;;;36.46;37.06
30021;BME280;16861;52.294;7.760;2023-05-22T12:07:22;99587.63;;;36.63;36.44
30021;BME280;16861;52.294;7.760;2023-05-22T12:09:49;99588.28;;;36.81;36.39
30021;BME280;16861;52.294;7.760;2023-05-22T12:12:15;99588.34;;;36.96;34.47
30021;BME280;16861;52.294;7.760;2023-05-22T12:14:44;99582.91;;;37.07;34.82
30021;BME280;16861;52.294;7.760;2023-05-22T12:17:11;99582.13;;;37.16;34.36
30021;BME280;16861;52.294;7.760;2023-05-22T12:19:39;99584.63;;;37.23;34.48
30021;BME280;16861;52.294;7.760;2023-05-22T12:22:07;99583.00;;;37.33;34.44
30021;BME280;16861;52.294;7.760;2023-05-22T12:24:41;99583.84;;;37.38;33.62
30021;BME280;16861;52.294;7.760;2023-05-22T12:27:08;99582.47;;;37.51;33.62
30021;BME280;16861;52.294;7.760;2023-05-22T12:29:37;99590.19;;;37.60;33.38
30021;BME280;16861;52.294;7.760;2023-05-22T12:32:06;99579.50;;;37.68;33.49
30021;BME280;16861;52.294;7.760;2023-05-22T12:34:42;99578.16;;;37.76;33.21
30021;BME280;16861;52.294;7.760;2023-05-22T12:39:57;99585.00;;;37.94;34.12
30021;BME280;16861;52.294;7.760;2023-05-22T12:42:24;99583.06;;;38.05;32.67
30021;BME280;16861;52.294;7.760;2023-05-22T12:44:52;99588.03;;;37.98;31.29
30021;BME280;16861;52.294;7.760;2023-05-22T12:47:19;99579.78;;;37.77;31.29
30021;BME280;16861;52.294;7.760;2023-05-22T12:49:46;99574.50;;;37.39;31.00
30021;BME280;16861;52.294;7.760;2023-05-22T12:52:13;99567.75;;;36.94;30.81
30021;BME280;16861;52.294;7.760;2023-05-22T12:54:39;99574.34;;;36.44;31.93
30021;BME280;16861;52.294;7.760;2023-05-22T12:57:06;99569.66;;;36.02;33.06
30021;BME280;16861;52.294;7.760;2023-05-22T12:59:33;99579.06;;;35.78;34.26
30021;BME280;16861;52.294;7.760;2023-05-22T13:02:00;99567.50;;;35.71;35.55
30021;BME280;16861;52.294;7.760;2023-05-22T13:04:28;99571.66;;;35.79;35.86
30021;BME280;16861;52.294;7.760;2023-05-22T13:06:55;99571.28;;;35.97;34.79
30021;BME280;16861;52.294;7.760;2023-05-22T13:09:22;99571.75;;;36.22;35.28
30021;BME280;16861;52.294;7.760;2023-05-22T13:11:48;99576.84;;;36.51;34.80
30021;BME280;16861;52.294;7.760;2023-05-22T13:14:15;99576.75;;;36.79;34.08
30021;BME280;16861;52.294;7.760;2023-05-22T13:16:42;99579.06;;;37.08;33.94
30021;BME280;16861;52.294;7.760;2023-05-22T13:19:09;99575.03;;;37.36;34.06
30021;BME280;16861;52.294;7.760;2023-05-22T13:21:35;99577.31;;;37.65;32.98
30021;BME280;16861;52.294;7.760;2023-05-22T13:24:02;99586.66;;;37.96;32.88
30021;BME280;16861;52.294;7.760;2023-05-22T13:26:29;99573.72;;;38.22;32.80
30021;BME280;16861;52.294;7.760;2023-05-22T13:28:56;99575.63;;;38.48;32.42
30021;BME280;16861;52.294;7.760;2023-05-22T13:31:22;99574.16;;;38.71;31.08
30021;BME280;16861;52.294;7.760;2023-05-22T13:33:49;99577.41;;;38.94;30.18